createdAt,value
2019-06-26T00:00:51.417Z,94534.95
2019-06-26T00:03:24.270Z,94531.32
2019-06-26T00:05:57.070Z,94535.33
2019-06-26T00:08:29.754Z,94530.48
2019-06-26T00:11:02.537Z,94537.63
2019-06-26T00:13:35.345Z,94530.38
2019-06-26T00:16:08.135Z,94531.04
2019-06-26T00:18:43.204Z,94534.31
2019-06-26T00:21:22.122Z,94524.81
2019-06-26T00:23:56.371Z,94522.37
2019-06-26T00:26:29.062Z,94520.22
2019-06-26T00:29:01.822Z,94514.38
2019-06-26T00:31:34.595Z,94522.77
2019-06-26T00:34:09.345Z,94518.45
2019-06-26T00:36:44.277Z,94524.34
2019-06-26T00:39:17.022Z,94516.84
2019-06-26T00:41:49.722Z,94517.08
2019-06-26T00:44:22.509Z,94516.84
2019-06-26T00:47:14.248Z,94506.73
2019-06-26T00:49:47.148Z,94513.32
2019-06-26T00:52:19.876Z,94509.57
2019-06-26T00:54:52.674Z,94499.75
2019-06-26T00:57:28.168Z,94492.56
2019-06-26T01:00:02.715Z,94500.86
2019-06-26T01:02:35.489Z,94499.75
2019-06-26T01:05:09.854Z,94505.63
2019-06-26T01:07:45.297Z,94495.58
2019-06-26T01:10:18.198Z,94490.42
2019-06-26T01:12:52.193Z,94488.98
2019-06-26T01:15:26.945Z,94488.42
2019-06-26T01:17:59.714Z,94485.32
2019-06-26T01:20:34.509Z,94481.63
2019-06-26T01:23:07.270Z,94487.62
2019-06-26T01:25:40.163Z,94479.56
2019-06-26T01:28:15.634Z,94479.21
2019-06-26T01:30:49.093Z,94480.11
2019-06-26T01:33:21.797Z,94469.19
2019-06-26T01:35:54.623Z,94476.38
2019-06-26T01:38:30.356Z,94473.83
2019-06-26T01:41:05.314Z,94472.72
2019-06-26T01:43:38.350Z,94473.45
2019-06-26T01:46:11.157Z,94469.58
2019-06-26T01:48:43.853Z,94477.63
2019-06-26T01:51:16.851Z,94475.59
2019-06-26T01:53:49.666Z,94475.52
2019-06-26T01:56:22.373Z,94472.06
2019-06-26T01:58:55.201Z,94467.56
2019-06-26T02:01:28.070Z,94459.43
2019-06-26T02:04:02.376Z,94462.84
2019-06-26T02:06:35.196Z,94454.84
2019-06-26T02:09:09.515Z,94461.30
2019-06-26T02:11:42.621Z,94460.70
2019-06-26T02:14:30.098Z,94459.47
2019-06-26T02:16:49.860Z,94459.60
2019-06-26T02:19:22.634Z,94459.84
2019-06-26T02:21:55.591Z,94453.49
2019-06-26T02:24:30.013Z,94458.25
2019-06-26T02:27:03.766Z,94455.43
2019-06-26T02:29:41.357Z,94463.23
2019-06-26T02:32:13.917Z,94459.30
2019-06-26T02:34:46.680Z,94457.86
2019-06-26T02:37:19.491Z,94460.98
2019-06-26T02:39:52.307Z,94455.52
2019-06-26T02:42:25.046Z,94454.77
2019-06-26T02:44:59.465Z,94456.49
2019-06-26T02:47:32.211Z,94465.27
2019-06-26T02:50:05.024Z,94453.66
2019-06-26T02:52:37.849Z,94458.00
2019-06-26T02:55:10.829Z,94447.84
2019-06-26T02:57:46.565Z,94447.55
2019-06-26T03:00:19.399Z,94454.41
2019-06-26T03:02:53.721Z,94452.00
2019-06-26T03:05:26.499Z,94451.46
2019-06-26T03:07:59.936Z,94450.28
2019-06-26T03:10:32.771Z,94451.33
2019-06-26T03:13:05.583Z,94444.67
2019-06-26T03:15:38.659Z,94454.50
2019-06-26T03:18:12.122Z,94451.33
2019-06-26T03:20:45.034Z,94456.76
2019-06-26T03:23:17.835Z,94444.05
2019-06-26T03:25:50.721Z,94446.18
2019-06-26T03:28:23.513Z,94447.32
2019-06-26T03:30:59.550Z,94443.17
2019-06-26T03:33:32.410Z,94437.03
2019-06-26T03:36:05.101Z,94434.39
2019-06-26T03:38:38.014Z,94437.61
2019-06-26T03:41:13.244Z,94444.72
2019-06-26T03:43:46.245Z,94442.95
2019-06-26T03:46:19.317Z,94447.27
2019-06-26T03:48:52.129Z,94447.41
2019-06-26T03:51:24.935Z,94454.46
2019-06-26T03:53:57.665Z,94445.95
2019-06-26T03:56:30.659Z,94448.02
2019-06-26T03:59:03.372Z,94453.09
2019-06-26T04:01:36.570Z,94451.20
2019-06-26T04:04:09.404Z,94452.87
2019-06-26T04:06:42.304Z,94453.97
2019-06-26T04:09:15.273Z,94447.73
2019-06-26T04:11:48.172Z,94460.73
2019-06-26T04:14:23.895Z,94457.25
2019-06-26T04:16:56.716Z,94462.58
2019-06-26T04:19:29.604Z,94468.14
2019-06-26T04:22:02.408Z,94471.35
2019-06-26T04:24:35.213Z,94479.70
2019-06-26T04:27:08.081Z,94472.42
2019-06-26T04:29:40.857Z,94478.42
2019-06-26T04:32:14.003Z,94472.38
2019-06-26T04:34:46.726Z,94469.15
2019-06-26T04:37:19.669Z,94476.12
2019-06-26T04:39:52.419Z,94474.75
2019-06-26T04:42:25.239Z,94470.12
2019-06-26T04:44:58.575Z,94474.47
2019-06-26T04:47:31.293Z,94468.66
2019-06-26T04:50:04.127Z,94465.22
2019-06-26T04:52:36.893Z,94467.56
2019-06-26T04:55:09.678Z,94467.17
2019-06-26T04:57:42.473Z,94470.83
2019-06-26T05:00:15.318Z,94473.03
2019-06-26T05:02:48.169Z,94475.90
2019-06-26T05:05:21.387Z,94477.70
2019-06-26T05:07:54.707Z,94473.30
2019-06-26T05:10:27.532Z,94472.50
2019-06-26T05:13:00.611Z,94465.53
2019-06-26T05:15:33.427Z,94467.56
2019-06-26T05:18:06.172Z,94471.66
2019-06-26T05:20:38.970Z,94470.99
2019-06-26T05:23:11.659Z,94463.16
2019-06-26T05:25:44.389Z,94467.78
2019-06-26T05:28:17.423Z,94474.17
2019-06-26T05:30:57.671Z,94472.43
2019-06-26T05:33:31.592Z,94475.05
2019-06-26T05:36:04.388Z,94479.00
2019-06-26T05:38:39.854Z,94476.38
2019-06-26T05:41:14.669Z,94476.23
2019-06-26T05:43:50.410Z,94483.50
2019-06-26T05:46:30.958Z,94473.35
2019-06-26T05:48:59.200Z,94480.03
2019-06-26T05:51:31.938Z,94478.36
2019-06-26T05:54:04.777Z,94481.05
2019-06-26T05:56:37.537Z,94482.65
2019-06-26T06:02:16.559Z,94481.06
2019-06-26T06:04:50.376Z,94484.16
2019-06-26T06:07:24.173Z,94486.98
2019-06-26T06:09:56.898Z,94492.84
2019-06-26T06:12:31.236Z,94491.27
2019-06-26T06:15:03.972Z,94498.63
2019-06-26T06:17:36.718Z,94494.47
2019-06-26T06:20:09.582Z,94497.20
2019-06-26T06:22:42.599Z,94496.89
2019-06-26T06:25:15.429Z,94499.77
2019-06-26T06:27:49.815Z,94498.50
2019-06-26T06:30:22.665Z,94498.76
2019-06-26T06:32:55.416Z,94503.71
2019-06-26T06:35:28.275Z,94500.34
2019-06-26T06:38:01.011Z,94507.68
2019-06-26T06:40:33.884Z,94504.28
2019-06-26T06:43:06.580Z,94509.51
2019-06-26T06:45:39.441Z,94511.23
2019-06-26T06:48:12.159Z,94508.84
2019-06-26T06:50:45.013Z,94505.66
2019-06-26T06:53:17.672Z,94517.55
2019-06-26T06:55:50.423Z,94513.06
2019-06-26T06:58:29.959Z,94509.39
2019-06-26T07:00:59.181Z,94519.97
2019-06-26T07:03:31.992Z,94510.81
2019-06-26T07:06:04.789Z,94513.63
2019-06-26T07:08:37.590Z,94523.24
2019-06-26T07:11:17.481Z,94528.83
2019-06-26T07:13:50.368Z,94529.88
2019-06-26T07:16:23.172Z,94524.47
2019-06-26T07:18:57.579Z,94528.72
2019-06-26T07:21:30.519Z,94518.87
2019-06-26T07:24:03.375Z,94525.14
2019-06-26T07:26:36.141Z,94519.20
2019-06-26T07:29:09.286Z,94517.27
2019-06-26T07:31:42.881Z,94516.21
2019-06-26T07:34:16.208Z,94518.80
2019-06-26T07:36:48.953Z,94517.23
2019-06-26T07:39:23.366Z,94522.13
2019-06-26T07:41:59.364Z,94515.92
2019-06-26T07:44:32.204Z,94521.78
2019-06-26T07:47:12.753Z,94520.59
2019-06-26T07:49:39.445Z,94525.36
2019-06-26T07:52:13.145Z,94527.45
2019-06-26T07:54:47.644Z,94532.30
2019-06-26T07:57:20.534Z,94527.57
2019-06-26T07:59:54.915Z,94527.84
2019-06-26T08:02:28.304Z,94528.77
2019-06-26T08:05:02.134Z,94530.39
2019-06-26T08:07:35.026Z,94527.73
2019-06-26T08:10:07.805Z,94525.00
2019-06-26T08:12:40.642Z,94526.52
2019-06-26T08:15:16.398Z,94531.09
2019-06-26T08:17:59.903Z,94543.39
2019-06-26T08:20:23.499Z,94543.29
2019-06-26T08:22:56.303Z,94542.43
2019-06-26T08:25:29.126Z,94541.05
2019-06-26T08:28:01.892Z,94541.16
2019-06-26T08:30:34.699Z,94547.36
2019-06-26T08:33:09.076Z,94545.95
2019-06-26T08:35:41.907Z,94550.80
2019-06-26T08:38:15.819Z,94546.69
2019-06-26T08:40:48.921Z,94542.43
2019-06-26T08:43:21.607Z,94554.66
2019-06-26T08:45:54.283Z,94549.36
2019-06-26T08:48:38.873Z,94548.11
2019-06-26T08:51:01.361Z,94548.59
2019-06-26T08:53:34.307Z,94553.42
2019-06-26T08:56:07.073Z,94548.58
2019-06-26T08:58:40.911Z,94553.73
2019-06-26T09:01:13.633Z,94548.55
2019-06-26T09:03:48.668Z,94546.56
2019-06-26T09:06:24.611Z,94546.59
2019-06-26T09:08:57.124Z,94540.11
2019-06-26T09:11:31.439Z,94537.22
2019-06-26T09:14:04.209Z,94545.49
2019-06-26T09:16:37.186Z,94541.64
2019-06-26T09:19:11.912Z,94537.95
2019-06-26T09:21:45.886Z,94539.84
2019-06-26T09:24:21.365Z,94543.86
2019-06-26T09:26:54.240Z,94539.91
2019-06-26T09:29:28.604Z,94531.94
2019-06-26T09:32:01.505Z,94534.28
2019-06-26T09:34:34.249Z,94533.29
2019-06-26T09:37:07.992Z,94538.16
2019-06-26T09:39:41.055Z,94538.78
2019-06-26T09:42:19.548Z,94533.84
2019-06-26T09:44:51.466Z,94537.72
2019-06-26T09:47:25.365Z,94539.35
2019-06-26T09:50:01.020Z,94534.11
2019-06-26T09:52:33.831Z,94536.66
2019-06-26T09:55:09.425Z,94533.91
2019-06-26T09:57:42.158Z,94530.38
2019-06-26T10:00:16.535Z,94528.74
2019-06-26T10:02:49.322Z,94531.23
2019-06-26T10:05:22.126Z,94530.76
2019-06-26T10:07:54.992Z,94533.20
2019-06-26T10:10:29.399Z,94526.27
2019-06-26T10:13:02.179Z,94530.56
2019-06-26T10:15:35.033Z,94523.54
2019-06-26T10:18:07.935Z,94525.69
2019-06-26T10:20:44.957Z,94531.47
2019-06-26T10:23:17.731Z,94529.30
2019-06-26T10:25:52.059Z,94524.23
2019-06-26T10:28:24.867Z,94535.30
2019-06-26T10:30:57.690Z,94521.10
2019-06-26T10:33:30.596Z,94522.70
2019-06-26T10:36:03.417Z,94520.87
2019-06-26T10:38:36.221Z,94527.38
2019-06-26T10:41:08.952Z,94520.44
2019-06-26T10:43:41.716Z,94522.82
2019-06-26T10:46:17.555Z,94516.05
2019-06-26T10:48:51.644Z,94511.43
2019-06-26T10:51:24.537Z,94516.83
2019-06-26T10:53:57.402Z,94506.58
2019-06-26T10:56:32.904Z,94505.33
2019-06-26T10:59:05.666Z,94513.30
2019-06-26T11:01:38.414Z,94505.33
2019-06-26T11:04:12.781Z,94502.75
2019-06-26T11:06:45.750Z,94506.98
2019-06-26T11:09:18.685Z,94502.27
2019-06-26T11:11:51.522Z,94502.34
2019-06-26T11:14:24.486Z,94499.92
2019-06-26T11:16:59.880Z,94499.34
2019-06-26T11:19:43.247Z,94485.61
2019-06-26T11:22:09.252Z,94502.34
2019-06-26T11:24:42.114Z,94497.98
2019-06-26T11:27:15.026Z,94496.26
2019-06-26T11:29:47.761Z,94489.81
2019-06-26T11:32:20.736Z,94490.55
2019-06-26T11:34:53.505Z,94483.25
2019-06-26T11:37:27.505Z,94481.80
2019-06-26T11:40:00.311Z,94473.63
2019-06-26T11:42:33.156Z,94478.73
2019-06-26T11:45:07.511Z,94472.94
2019-06-26T11:47:45.377Z,94478.00
2019-06-26T11:50:15.727Z,94472.14
2019-06-26T11:52:48.579Z,94472.12
2019-06-26T11:55:23.415Z,94467.61
2019-06-26T11:57:56.164Z,94464.61
2019-06-26T12:00:30.894Z,94463.88
2019-06-26T12:03:05.251Z,94461.41
2019-06-26T12:05:38.038Z,94462.30
2019-06-26T12:08:10.830Z,94462.28
2019-06-26T12:10:43.689Z,94473.52
2019-06-26T12:13:16.530Z,94462.28
2019-06-26T12:15:49.500Z,94468.42
2019-06-26T12:18:25.532Z,94460.43
2019-06-26T12:20:58.408Z,94457.56
2019-06-26T12:23:31.175Z,94456.00
2019-06-26T12:26:03.949Z,94465.06
2019-06-26T12:28:36.744Z,94454.04
2019-06-26T12:31:09.522Z,94461.49
2019-06-26T12:33:42.299Z,94454.30
2019-06-26T12:36:15.161Z,94453.86
2019-06-26T12:38:48.344Z,94441.52
2019-06-26T12:41:21.065Z,94441.52
2019-06-26T12:43:53.972Z,94445.83
2019-06-26T12:46:26.844Z,94443.05
2019-06-26T12:48:59.599Z,94441.89
2019-06-26T12:51:33.421Z,94430.13
2019-06-26T12:54:06.414Z,94429.77
2019-06-26T12:56:39.257Z,94438.52
2019-06-26T12:59:13.690Z,94438.61
2019-06-26T13:01:46.532Z,94431.88
2019-06-26T13:04:21.005Z,94427.17
2019-06-26T13:07:00.325Z,94430.18
2019-06-26T13:09:33.145Z,94426.07
2019-06-26T13:12:06.275Z,94423.83
2019-06-26T13:14:39.990Z,94425.00
2019-06-26T13:17:12.921Z,94413.52
2019-06-26T13:19:45.656Z,94419.12
2019-06-26T13:22:20.213Z,94419.92
2019-06-26T13:24:53.015Z,94412.27
2019-06-26T13:27:26.972Z,94418.95
2019-06-26T13:29:59.789Z,94406.28
2019-06-26T13:32:32.665Z,94407.94
2019-06-26T13:35:05.682Z,94406.28
2019-06-26T13:37:38.524Z,94405.63
2019-06-26T13:40:11.272Z,94405.81
2019-06-26T13:42:44.055Z,94402.02
2019-06-26T13:45:16.985Z,94404.19
2019-06-26T13:47:49.906Z,94395.50
2019-06-26T13:50:22.806Z,94397.94
2019-06-26T13:52:55.677Z,94390.85
2019-06-26T13:55:28.412Z,94393.75
2019-06-26T13:58:01.818Z,94393.05
2019-06-26T14:00:34.775Z,94399.43
2019-06-26T14:03:07.878Z,94390.41
2019-06-26T14:05:42.317Z,94392.42
2019-06-26T14:08:15.636Z,94392.34
2019-06-26T14:10:48.716Z,94383.79
2019-06-26T14:13:21.910Z,94390.30
2019-06-26T14:15:54.939Z,94378.30
2019-06-26T14:18:30.405Z,94379.30
2019-06-26T14:21:03.351Z,94374.61
2019-06-26T14:23:38.086Z,94369.70
2019-06-26T14:26:12.405Z,94368.78
2019-06-26T14:28:45.365Z,94365.09
2019-06-26T14:31:18.488Z,94362.79
2019-06-26T14:33:53.029Z,94361.62
2019-06-26T14:36:25.946Z,94364.86
2019-06-26T14:39:09.452Z,94360.04
2019-06-26T14:41:42.296Z,94354.30
2019-06-26T14:44:15.089Z,94358.75
2019-06-26T14:46:49.590Z,94356.47
2019-06-26T14:49:22.398Z,94351.50
2019-06-26T14:51:55.414Z,94350.58
2019-06-26T14:54:28.464Z,94351.53
2019-06-26T14:57:20.235Z,94344.48
2019-06-26T14:59:52.965Z,94336.53
2019-06-26T15:02:26.142Z,94329.48
2019-06-26T15:05:00.651Z,94334.17
2019-06-26T15:07:35.632Z,94328.71
2019-06-26T15:10:08.446Z,94322.37
2019-06-26T15:12:44.317Z,94326.91
2019-06-26T15:15:16.847Z,94331.08
2019-06-26T15:17:49.663Z,94309.29
2019-06-26T15:20:23.291Z,94312.06
2019-06-26T15:22:58.726Z,94312.53
2019-06-26T15:25:30.657Z,94315.49
2019-06-26T15:28:03.447Z,94309.88
2019-06-26T15:30:38.679Z,94309.79
2019-06-26T15:33:11.621Z,94307.25
2019-06-26T15:35:44.472Z,94307.26
2019-06-26T15:38:20.320Z,94297.55
2019-06-26T15:40:53.003Z,94296.09
2019-06-26T15:43:25.845Z,94294.88
2019-06-26T15:45:58.811Z,94287.49
2019-06-26T15:48:31.847Z,94298.58
2019-06-26T15:51:04.711Z,94292.37
2019-06-26T15:53:39.425Z,94291.33
2019-06-26T15:56:12.470Z,94287.21
2019-06-26T15:58:47.388Z,94282.80
2019-06-26T16:01:20.287Z,94291.55
2019-06-26T16:03:55.898Z,94287.48
2019-06-26T16:06:28.694Z,94280.06
2019-06-26T16:09:01.430Z,94282.86
2019-06-26T16:11:34.624Z,94284.87
2019-06-26T16:14:08.924Z,94282.50
2019-06-26T16:16:43.243Z,94285.88
2019-06-26T16:19:20.521Z,94287.16
2019-06-26T16:21:53.341Z,94277.22
2019-06-26T16:24:26.131Z,94278.28
2019-06-26T16:26:58.977Z,94281.47
2019-06-26T16:29:32.364Z,94276.55
2019-06-26T16:32:06.089Z,94272.39
2019-06-26T16:34:40.868Z,94280.18
2019-06-26T16:37:13.635Z,94275.66
2019-06-26T16:39:48.066Z,94273.35
2019-06-26T16:42:20.919Z,94267.83
2019-06-26T16:44:55.349Z,94274.92
2019-06-26T16:47:33.211Z,94270.67
2019-06-26T16:50:06.261Z,94270.57
2019-06-26T16:52:49.295Z,94270.31
2019-06-26T16:55:13.835Z,94274.88
2019-06-26T16:57:46.610Z,94272.83
2019-06-26T17:00:19.510Z,94264.26
2019-06-26T17:02:52.542Z,94264.84
2019-06-26T17:05:25.345Z,94261.94
2019-06-26T17:07:58.124Z,94267.33
2019-06-26T17:10:32.436Z,94267.05
2019-06-26T17:13:05.274Z,94267.32
2019-06-26T17:15:41.045Z,94266.43
2019-06-26T17:18:14.294Z,94269.95
2019-06-26T17:20:48.941Z,94269.71
2019-06-26T17:23:21.766Z,94272.94
2019-06-26T17:25:54.639Z,94266.12
2019-06-26T17:28:27.470Z,94265.02
2019-06-26T17:31:03.814Z,94265.16
2019-06-26T17:33:36.690Z,94263.32
2019-06-26T17:36:09.566Z,94262.84
2019-06-26T17:38:45.084Z,94261.92
2019-06-26T17:41:17.999Z,94269.64
2019-06-26T17:43:50.795Z,94267.38
2019-06-26T17:46:25.239Z,94267.98
2019-06-26T17:48:57.999Z,94267.44
2019-06-26T17:51:32.478Z,94267.61
2019-06-26T17:54:05.280Z,94274.45
2019-06-26T17:56:39.633Z,94267.05
2019-06-26T17:59:21.547Z,94268.20
2019-06-26T18:01:53.998Z,94270.08
2019-06-26T18:04:26.870Z,94274.02
2019-06-26T18:07:18.680Z,94275.30
2019-06-26T18:09:51.419Z,94269.84
2019-06-26T18:12:24.289Z,94277.44
2019-06-26T18:14:57.137Z,94279.73
2019-06-26T18:17:29.974Z,94274.08
2019-06-26T18:20:02.791Z,94281.03
2019-06-26T18:22:35.597Z,94275.88
2019-06-26T18:25:08.692Z,94282.69
2019-06-26T18:27:42.101Z,94280.72
2019-06-26T18:30:16.529Z,94286.52
2019-06-26T18:32:49.557Z,94281.18
2019-06-26T18:35:22.560Z,94284.05
2019-06-26T18:37:55.326Z,94288.35
2019-06-26T18:40:31.089Z,94282.75
2019-06-26T18:43:03.894Z,94291.97
2019-06-26T18:45:36.680Z,94285.28
2019-06-26T18:48:09.595Z,94292.97
2019-06-26T18:50:42.395Z,94301.63
2019-06-26T18:53:15.190Z,94296.33
2019-06-26T18:55:47.910Z,94302.53
2019-06-26T18:58:21.410Z,94298.70
2019-06-26T19:00:54.246Z,94300.58
2019-06-26T19:03:27.010Z,94305.83
2019-06-26T19:05:59.765Z,94308.49
2019-06-26T19:08:32.707Z,94307.83
2019-06-26T19:11:05.567Z,94310.63
2019-06-26T19:13:38.452Z,94310.89
2019-06-26T19:16:11.165Z,94320.16
2019-06-26T19:18:46.259Z,94314.63
2019-06-26T19:21:19.104Z,94319.53
2019-06-26T19:23:52.304Z,94316.67
2019-06-26T19:26:25.105Z,94317.45
2019-06-26T19:28:58.009Z,94320.31
2019-06-26T19:31:30.846Z,94324.27
2019-06-26T19:34:03.776Z,94319.20
2019-06-26T19:36:49.641Z,94322.35
2019-06-26T19:39:12.659Z,94319.74
2019-06-26T19:41:45.422Z,94330.58
2019-06-26T19:44:18.229Z,94322.44
2019-06-26T19:46:51.994Z,94324.82
2019-06-26T19:49:24.707Z,94325.93
2019-06-26T19:51:57.697Z,94323.14
2019-06-26T19:54:33.257Z,94333.55
2019-06-26T19:57:07.249Z,94329.80
2019-06-26T19:59:40.094Z,94330.17
2019-06-26T20:02:12.935Z,94329.25
2019-06-26T20:04:48.254Z,94325.59
2019-06-26T20:07:20.120Z,94324.03
2019-06-26T20:09:52.925Z,94324.70
2019-06-26T20:12:25.674Z,94324.27
2019-06-26T20:14:58.544Z,94324.02
2019-06-26T20:17:31.343Z,94329.33
2019-06-26T20:20:04.194Z,94325.50
2019-06-26T20:22:36.899Z,94322.88
2019-06-26T20:25:09.720Z,94318.80
2019-06-26T20:27:42.529Z,94319.95
2019-06-26T20:30:15.292Z,94323.33
2019-06-26T20:32:48.073Z,94325.39
2019-06-26T20:35:20.884Z,94320.41
2019-06-26T20:37:53.664Z,94317.45
2019-06-26T20:40:26.483Z,94329.16
2019-06-26T20:42:59.233Z,94323.52
2019-06-26T20:45:33.624Z,94324.31
2019-06-26T20:48:06.350Z,94321.00
2019-06-26T20:50:39.198Z,94324.31
2019-06-26T20:53:12.068Z,94325.70
2019-06-26T20:55:44.962Z,94319.09
2019-06-26T20:58:17.815Z,94322.73
2019-06-26T21:00:50.600Z,94318.38
2019-06-26T21:03:23.593Z,94321.23
2019-06-26T21:05:56.473Z,94318.78
2019-06-26T21:08:30.889Z,94320.14
2019-06-26T21:11:03.665Z,94317.73
2019-06-26T21:13:36.471Z,94320.77
2019-06-26T21:16:09.333Z,94307.55
2019-06-26T21:18:42.284Z,94313.02
2019-06-26T21:21:15.249Z,94307.84
2019-06-26T21:23:48.034Z,94310.77
2019-06-26T21:26:23.657Z,94310.38
2019-06-26T21:28:56.459Z,94314.55
2019-06-26T21:31:29.325Z,94320.14
2019-06-26T21:34:02.249Z,94319.47
2019-06-26T21:36:35.096Z,94317.48
2019-06-26T21:39:07.840Z,94315.86
2019-06-26T21:41:40.735Z,94308.41
2019-06-26T21:44:13.459Z,94308.86
2019-06-26T21:46:46.339Z,94306.70
2019-06-26T21:49:19.216Z,94311.11
2019-06-26T21:51:51.950Z,94318.83
2019-06-26T21:54:24.804Z,94313.42
2019-06-26T21:56:57.564Z,94313.81
2019-06-26T21:59:31.915Z,94314.21
2019-06-26T22:02:04.756Z,94311.55
2019-06-26T22:04:37.653Z,94308.00
2019-06-26T22:07:10.469Z,94297.98
2019-06-26T22:09:45.869Z,94305.91
2019-06-26T22:12:18.872Z,94303.43
2019-06-26T22:14:51.914Z,94303.05
2019-06-26T22:17:24.730Z,94299.65
2019-06-26T22:19:57.651Z,94304.45
2019-06-26T22:22:33.619Z,94299.89
2019-06-26T22:25:07.241Z,94303.71
2019-06-26T22:27:40.087Z,94312.51
2019-06-26T22:30:12.788Z,94306.19
2019-06-26T22:32:48.769Z,94297.94
2019-06-26T22:35:21.579Z,94304.84
2019-06-26T22:37:54.581Z,94297.39
2019-06-26T22:40:27.432Z,94301.52
2019-06-26T22:43:00.185Z,94293.16
2019-06-26T22:45:33.064Z,94293.73
2019-06-26T22:48:14.095Z,94286.62
2019-06-26T22:50:51.359Z,94288.28
2019-06-26T22:53:24.221Z,94291.48
2019-06-26T22:56:07.450Z,94292.70
2019-06-26T22:58:35.680Z,94284.59
2019-06-26T23:01:12.604Z,94284.75
2019-06-26T23:03:47.599Z,94280.92
2019-06-26T23:06:22.086Z,94274.84
2019-06-26T23:09:01.001Z,94270.35
2019-06-26T23:11:35.370Z,94263.66
2019-06-26T23:14:11.980Z,94264.98
2019-06-26T23:16:46.350Z,94262.31
2019-06-26T23:19:22.780Z,94261.91
2019-06-26T23:21:57.465Z,94264.05
2019-06-26T23:24:41.102Z,94256.59
2019-06-26T23:27:17.711Z,94259.13
2019-06-26T23:29:50.465Z,94250.47
2019-06-26T23:32:23.194Z,94248.48
2019-06-26T23:34:58.286Z,94246.91
2019-06-26T23:37:36.451Z,94248.35
2019-06-26T23:40:15.869Z,94251.07
2019-06-26T23:42:48.576Z,94249.55
2019-06-26T23:45:24.353Z,94250.19
2019-06-26T23:47:57.050Z,94253.51
2019-06-26T23:50:31.512Z,94245.19
2019-06-26T23:53:05.450Z,94245.27
2019-06-26T23:55:38.147Z,94236.63
2019-06-26T23:58:16.594Z,94238.66
